createdAt,value
2019-05-28T00:00:01.770Z,2.60
2019-05-28T00:00:50.476Z,2.60
2019-05-28T00:01:49.470Z,2.70
2019-05-28T00:02:49.386Z,2.80
2019-05-28T00:03:49.435Z,2.80
2019-05-28T00:04:49.461Z,3.00
2019-05-28T00:05:49.440Z,2.70
2019-05-28T00:06:49.404Z,2.60
2019-05-28T00:07:49.404Z,2.50
2019-05-28T00:08:49.381Z,2.60
2019-05-28T00:09:49.275Z,2.60
2019-05-28T00:10:49.392Z,3.00
2019-05-28T00:11:49.354Z,2.70
2019-05-28T00:12:49.330Z,2.70
2019-05-28T00:13:49.333Z,2.40
2019-05-28T00:14:49.307Z,2.60
2019-05-28T00:15:49.355Z,2.70
2019-05-28T00:16:49.303Z,2.50
2019-05-28T00:17:49.285Z,2.80
2019-05-28T00:18:49.249Z,2.60
2019-05-28T00:19:49.249Z,2.70
2019-05-28T00:20:49.224Z,2.50
2019-05-28T00:21:49.283Z,2.90
2019-05-28T00:22:49.227Z,2.40
2019-05-28T00:23:49.123Z,2.80
2019-05-28T00:24:49.189Z,2.60
2019-05-28T00:25:49.195Z,2.60
2019-05-28T00:26:49.177Z,3.10
2019-05-28T00:27:49.102Z,2.70
2019-05-28T00:28:49.154Z,2.60
2019-05-28T00:29:49.216Z,2.60
2019-05-28T00:30:49.133Z,2.50
2019-05-28T00:31:49.120Z,2.60
2019-05-28T00:32:49.095Z,2.70
2019-05-28T00:33:49.092Z,2.70
2019-05-28T00:34:48.993Z,2.50
2019-05-28T00:35:49.105Z,2.60
2019-05-28T00:36:48.981Z,2.70
2019-05-28T00:37:49.052Z,2.80
2019-05-28T00:38:49.059Z,2.40
2019-05-28T00:39:49.035Z,2.60
2019-05-28T00:40:49.042Z,2.30
2019-05-28T00:41:48.987Z,2.80
2019-05-28T00:42:49.027Z,2.70
2019-05-28T00:43:48.983Z,2.80
2019-05-28T00:44:48.965Z,2.60
2019-05-28T00:45:48.963Z,2.70
2019-05-28T00:46:48.946Z,2.70
2019-05-28T00:47:48.926Z,2.70
2019-05-28T00:48:48.961Z,2.60
2019-05-28T00:49:49.855Z,2.70
2019-05-28T00:50:48.904Z,2.70
2019-05-28T00:51:48.884Z,2.90
2019-05-28T00:52:48.780Z,2.60
2019-05-28T00:53:48.785Z,2.80
2019-05-28T00:54:48.881Z,3.00
2019-05-28T00:55:48.861Z,2.60
2019-05-28T00:56:48.792Z,2.60
2019-05-28T00:57:48.843Z,2.50
2019-05-28T00:58:48.825Z,2.60
2019-05-28T00:59:48.791Z,2.50
2019-05-28T01:00:48.813Z,2.70
2019-05-28T01:01:48.781Z,2.30
2019-05-28T01:02:48.787Z,2.70
2019-05-28T01:03:48.674Z,2.60
2019-05-28T01:04:48.775Z,2.80
2019-05-28T01:05:49.610Z,2.80
2019-05-28T01:06:48.842Z,2.60
2019-05-28T01:07:48.629Z,2.60
2019-05-28T01:08:48.719Z,2.60
2019-05-28T01:09:48.700Z,2.60
2019-05-28T01:10:48.582Z,2.50
2019-05-28T01:11:48.678Z,2.70
2019-05-28T01:12:48.678Z,2.60
2019-05-28T01:13:48.656Z,2.70
2019-05-28T01:14:48.637Z,2.70
2019-05-28T01:15:48.627Z,2.70
2019-05-28T01:16:48.625Z,2.60
2019-05-28T01:17:48.645Z,2.50
2019-05-28T01:18:48.597Z,2.60
2019-05-28T01:19:48.577Z,2.60
2019-05-28T01:20:48.577Z,2.50
2019-05-28T01:21:48.561Z,2.30
2019-05-28T01:22:48.547Z,2.50
2019-05-28T01:23:48.579Z,2.50
2019-05-28T01:24:48.537Z,2.40
2019-05-28T01:25:48.423Z,2.50
2019-05-28T01:26:48.549Z,2.50
2019-05-28T01:27:48.491Z,2.60
2019-05-28T01:28:48.484Z,2.90
2019-05-28T01:29:48.473Z,3.00
2019-05-28T01:30:56.110Z,2.40
2019-05-28T01:31:49.475Z,2.40
2019-05-28T01:32:48.436Z,2.80
2019-05-28T01:33:48.436Z,2.80
2019-05-28T01:34:48.408Z,3.00
2019-05-28T01:35:49.397Z,2.70
2019-05-28T01:36:48.305Z,3.00
2019-05-28T01:37:48.407Z,2.70
2019-05-28T01:38:48.370Z,3.10
2019-05-28T01:39:48.277Z,2.50
2019-05-28T01:40:48.338Z,2.60
2019-05-28T01:41:48.325Z,2.70
2019-05-28T01:42:48.323Z,2.50
2019-05-28T01:43:48.310Z,2.60
2019-05-28T01:44:48.334Z,2.80
2019-05-28T01:45:48.290Z,2.80
2019-05-28T01:46:48.174Z,2.40
2019-05-28T01:47:48.249Z,2.60
2019-05-28T01:48:48.248Z,2.80
2019-05-28T01:49:48.233Z,2.80
2019-05-28T01:50:48.255Z,2.70
2019-05-28T01:51:48.231Z,2.90
2019-05-28T01:52:48.153Z,2.70
2019-05-28T01:53:48.109Z,3.20
2019-05-28T01:54:48.178Z,3.10
2019-05-28T01:55:48.174Z,2.70
2019-05-28T01:56:48.155Z,2.80
2019-05-28T01:57:48.068Z,2.60
2019-05-28T01:58:48.179Z,2.70
2019-05-28T01:59:48.144Z,2.80
2019-05-28T02:00:48.122Z,3.00
2019-05-28T02:01:48.110Z,2.90
2019-05-28T02:02:48.134Z,2.50
2019-05-28T02:03:48.088Z,2.90
2019-05-28T02:04:48.123Z,2.70
2019-05-28T02:05:48.089Z,2.90
2019-05-28T02:06:48.061Z,2.70
2019-05-28T02:07:47.938Z,2.60
2019-05-28T02:08:48.035Z,2.60
2019-05-28T02:09:48.024Z,2.30
2019-05-28T02:10:48.031Z,2.50
2019-05-28T02:11:47.914Z,2.80
2019-05-28T02:12:47.983Z,2.80
2019-05-28T02:13:47.980Z,2.60
2019-05-28T02:14:47.970Z,2.70
2019-05-28T02:15:47.863Z,2.60
2019-05-28T02:16:47.859Z,2.80
2019-05-28T02:17:47.931Z,2.60
2019-05-28T02:18:47.923Z,2.80
2019-05-28T02:19:47.822Z,3.10
2019-05-28T02:20:47.884Z,3.10
2019-05-28T02:21:47.914Z,2.50
2019-05-28T02:22:47.794Z,2.90
2019-05-28T02:23:47.779Z,2.80
2019-05-28T02:24:47.763Z,2.90
2019-05-28T02:25:47.843Z,2.80
2019-05-28T02:26:47.828Z,2.70
2019-05-28T02:27:47.846Z,2.30
2019-05-28T02:28:47.811Z,2.60
2019-05-28T02:29:47.782Z,2.80
2019-05-28T02:30:47.790Z,2.80
2019-05-28T02:31:47.756Z,2.60
2019-05-28T02:32:47.762Z,2.30
2019-05-28T02:33:47.784Z,2.70
2019-05-28T02:34:47.782Z,2.70
2019-05-28T02:35:47.723Z,2.70
2019-05-28T02:36:47.737Z,2.70
2019-05-28T02:37:47.708Z,2.50
2019-05-28T02:38:47.696Z,2.50
2019-05-28T02:39:47.670Z,2.50
2019-05-28T02:40:47.680Z,2.50
2019-05-28T02:41:47.653Z,2.70
2019-05-28T02:42:47.639Z,2.50
2019-05-28T02:43:47.637Z,2.60
2019-05-28T02:44:47.625Z,2.60
2019-05-28T02:45:47.648Z,2.80
2019-05-28T02:46:47.613Z,2.60
2019-05-28T02:47:47.572Z,2.80
2019-05-28T02:48:47.570Z,2.60
2019-05-28T02:49:47.581Z,2.30
2019-05-28T02:50:47.564Z,2.70
2019-05-28T02:51:47.576Z,2.50
2019-05-28T02:52:47.563Z,2.80
2019-05-28T02:53:47.534Z,2.50
2019-05-28T02:54:47.516Z,2.50
2019-05-28T02:55:47.499Z,2.50
2019-05-28T02:56:47.489Z,2.40
2019-05-28T02:57:47.512Z,2.60
2019-05-28T02:58:47.468Z,2.80
2019-05-28T02:59:47.465Z,2.60
2019-05-28T03:00:47.456Z,2.50
2019-05-28T03:01:47.436Z,2.60
2019-05-28T03:02:47.433Z,2.70
2019-05-28T03:03:47.453Z,2.70
2019-05-28T03:04:47.406Z,2.50
2019-05-28T03:05:47.385Z,2.40
2019-05-28T03:06:47.378Z,2.60
2019-05-28T03:07:47.368Z,2.40
2019-05-28T03:08:47.364Z,2.50
2019-05-28T03:09:47.375Z,2.90
2019-05-28T03:11:02.527Z,2.40
2019-05-28T03:11:48.325Z,2.70
2019-05-28T03:12:47.365Z,2.50
2019-05-28T03:13:47.285Z,2.60
2019-05-28T03:14:47.294Z,2.20
2019-05-28T03:15:47.279Z,2.40
2019-05-28T03:16:47.280Z,2.20
2019-05-28T03:17:47.251Z,2.30
2019-05-28T03:18:47.300Z,2.30
2019-05-28T03:19:47.242Z,2.60
2019-05-28T03:20:47.216Z,2.60
2019-05-28T03:21:47.228Z,2.60
2019-05-28T03:22:47.197Z,2.50
2019-05-28T03:23:47.180Z,2.20
2019-05-28T03:24:47.221Z,2.40
2019-05-28T03:25:47.169Z,2.50
2019-05-28T03:26:47.146Z,2.40
2019-05-28T03:27:47.154Z,2.60
2019-05-28T03:28:47.143Z,2.30
2019-05-28T03:29:47.170Z,2.40
2019-05-28T03:30:47.113Z,2.40
2019-05-28T03:32:06.007Z,2.50
2019-05-28T03:32:48.098Z,2.40
2019-05-28T03:33:47.086Z,2.50
2019-05-28T03:34:47.069Z,2.40
2019-05-28T03:35:46.979Z,2.30
2019-05-28T03:36:46.940Z,2.40
2019-05-28T03:37:47.083Z,2.40
2019-05-28T03:38:47.010Z,2.20
2019-05-28T03:39:47.015Z,2.50
2019-05-28T03:40:46.907Z,2.60
2019-05-28T03:41:46.992Z,2.30
2019-05-28T03:42:47.013Z,2.40
2019-05-28T03:43:46.964Z,2.40
2019-05-28T03:44:46.966Z,2.30
2019-05-28T03:45:46.946Z,2.80
2019-05-28T03:46:46.946Z,2.50
2019-05-28T03:47:46.915Z,2.40
2019-05-28T03:48:46.948Z,2.40
2019-05-28T03:49:46.904Z,2.00
2019-05-28T03:50:46.889Z,2.40
2019-05-28T03:51:46.891Z,2.40
2019-05-28T03:52:46.913Z,2.30
2019-05-28T03:53:46.866Z,2.30
2019-05-28T03:54:46.851Z,2.50
2019-05-28T03:55:46.831Z,2.40
2019-05-28T03:56:46.820Z,2.20
2019-05-28T03:57:46.812Z,2.60
2019-05-28T03:58:46.820Z,2.20
2019-05-28T03:59:46.791Z,2.40
2019-05-28T04:00:46.773Z,2.10
2019-05-28T04:01:46.781Z,2.20
2019-05-28T04:02:46.770Z,2.30
2019-05-28T04:03:46.639Z,2.00
2019-05-28T04:04:46.665Z,2.00
2019-05-28T04:05:46.727Z,2.20
2019-05-28T04:06:46.714Z,2.10
2019-05-28T04:07:46.609Z,2.20
2019-05-28T04:08:46.686Z,2.00
2019-05-28T04:09:46.686Z,2.20
2019-05-28T04:10:46.612Z,2.10
2019-05-28T04:11:46.640Z,2.10
2019-05-28T04:12:46.671Z,2.30
2019-05-28T04:13:46.647Z,2.00
2019-05-28T04:14:46.618Z,2.20
2019-05-28T04:15:46.618Z,1.90
2019-05-28T04:16:46.529Z,2.30
2019-05-28T04:17:46.592Z,2.00
2019-05-28T04:18:46.582Z,1.80
2019-05-28T04:19:46.600Z,2.40
2019-05-28T04:20:46.533Z,2.10
2019-05-28T04:21:46.563Z,2.40
2019-05-28T04:22:46.436Z,2.10
2019-05-28T04:23:46.515Z,2.00
2019-05-28T04:24:46.536Z,2.20
2019-05-28T04:25:46.582Z,2.10
2019-05-28T04:26:46.385Z,2.10
2019-05-28T04:27:46.480Z,2.80
2019-05-28T04:28:46.470Z,2.90
2019-05-28T04:29:46.462Z,3.40
2019-05-28T04:30:46.364Z,4.60
2019-05-28T04:31:46.457Z,4.80
2019-05-28T04:32:46.421Z,6.10
2019-05-28T04:33:46.394Z,5.70
2019-05-28T04:34:46.399Z,6.50
2019-05-28T04:35:46.394Z,6.20
2019-05-28T04:36:46.534Z,5.90
2019-05-28T04:37:46.408Z,6.00
2019-05-28T04:38:46.355Z,5.60
2019-05-28T04:39:46.341Z,5.50
2019-05-28T04:40:46.330Z,5.60
2019-05-28T04:41:46.332Z,5.40
2019-05-28T04:42:46.348Z,5.50
2019-05-28T04:43:46.306Z,5.50
2019-05-28T04:44:46.317Z,4.80
2019-05-28T04:45:46.278Z,4.70
2019-05-28T04:46:46.182Z,5.20
2019-05-28T04:47:46.299Z,4.80
2019-05-28T04:48:46.291Z,4.80
2019-05-28T04:49:46.268Z,4.70
2019-05-28T04:50:46.247Z,4.80
2019-05-28T04:51:46.215Z,4.70
2019-05-28T04:52:46.208Z,4.60
2019-05-28T04:53:46.181Z,4.60
2019-05-28T04:54:46.174Z,4.60
2019-05-28T04:55:46.188Z,4.50
2019-05-28T04:56:46.160Z,4.40
2019-05-28T04:57:46.151Z,4.20
2019-05-28T04:58:46.137Z,4.00
2019-05-28T04:59:46.121Z,3.90
2019-05-28T05:00:46.115Z,4.10
2019-05-28T05:01:46.142Z,3.80
2019-05-28T05:02:58.698Z,3.80
2019-05-28T05:03:46.968Z,3.80
2019-05-28T05:04:46.069Z,4.10
2019-05-28T05:05:46.054Z,3.90
2019-05-28T05:06:46.056Z,3.60
2019-05-28T05:07:46.066Z,4.00
2019-05-28T05:08:46.020Z,3.70
2019-05-28T05:09:46.018Z,3.60
2019-05-28T05:10:46.004Z,3.70
2019-05-28T05:11:45.992Z,3.80
2019-05-28T05:12:46.011Z,3.50
2019-05-28T05:13:45.983Z,3.50
2019-05-28T05:14:45.952Z,3.50
2019-05-28T05:15:47.285Z,3.20
2019-05-28T05:16:45.827Z,3.50
2019-05-28T05:17:45.826Z,3.50
2019-05-28T05:18:45.937Z,3.20
2019-05-28T05:19:45.816Z,2.90
2019-05-28T05:20:45.793Z,3.50
2019-05-28T05:21:46.035Z,3.50
2019-05-28T05:22:45.781Z,3.60
2019-05-28T05:23:45.747Z,4.10
2019-05-28T05:24:45.774Z,4.00
2019-05-28T05:25:45.734Z,4.20
2019-05-28T05:26:45.722Z,3.60
2019-05-28T05:27:45.704Z,3.60
2019-05-28T05:28:45.702Z,3.90
2019-05-28T05:29:45.702Z,3.70
2019-05-28T05:30:45.736Z,3.50
2019-05-28T05:31:46.523Z,3.20
2019-05-28T05:32:45.659Z,3.40
2019-05-28T05:33:45.624Z,3.20
2019-05-28T05:34:45.623Z,3.50
2019-05-28T05:35:45.621Z,3.60
2019-05-28T05:36:45.661Z,3.20
2019-05-28T05:37:46.031Z,2.90
2019-05-28T05:38:45.584Z,3.00
2019-05-28T05:39:48.897Z,2.90
2019-05-28T05:40:45.586Z,2.90
2019-05-28T05:41:45.539Z,3.50
2019-05-28T05:42:45.584Z,2.60
2019-05-28T05:43:45.507Z,2.90
2019-05-28T05:44:45.516Z,2.60
2019-05-28T05:45:45.498Z,2.70
2019-05-28T05:46:45.498Z,3.00
2019-05-28T05:47:45.471Z,2.60
2019-05-28T05:48:45.509Z,2.90
2019-05-28T05:49:45.525Z,2.70
2019-05-28T05:50:45.545Z,2.80
2019-05-28T05:51:45.438Z,2.90
2019-05-28T05:52:45.426Z,2.60
2019-05-28T05:53:45.428Z,2.50
2019-05-28T05:54:45.447Z,2.70
2019-05-28T05:55:45.402Z,2.60
2019-05-28T05:56:45.385Z,2.60
2019-05-28T05:57:45.382Z,2.60
2019-05-28T05:58:45.365Z,2.70
2019-05-28T05:59:45.342Z,2.50
2019-05-28T06:00:45.383Z,2.70
2019-05-28T06:01:45.318Z,2.80
2019-05-28T06:02:45.314Z,2.50
2019-05-28T06:03:45.309Z,2.60
2019-05-28T06:04:45.309Z,2.60
2019-05-28T06:05:45.289Z,2.70
2019-05-28T06:06:45.319Z,2.40
2019-05-28T06:07:45.272Z,2.30
2019-05-28T06:08:45.249Z,2.40
2019-05-28T06:09:45.253Z,2.20
2019-05-28T06:10:45.247Z,2.30
2019-05-28T06:11:45.215Z,2.40
2019-05-28T06:12:45.242Z,2.50
2019-05-28T06:13:45.197Z,2.80
2019-05-28T06:14:45.226Z,2.70
2019-05-28T06:15:45.183Z,2.60
2019-05-28T06:16:45.155Z,3.10
2019-05-28T06:17:45.183Z,3.20
2019-05-28T06:18:45.203Z,3.30
2019-05-28T06:19:45.137Z,3.10
2019-05-28T06:20:45.110Z,3.50
2019-05-28T06:21:45.100Z,3.40
2019-05-28T06:22:45.108Z,3.20
2019-05-28T06:23:45.096Z,3.50
2019-05-28T06:24:45.216Z,3.30
2019-05-28T06:25:45.164Z,3.20
2019-05-28T06:26:45.150Z,3.00
2019-05-28T06:27:45.039Z,3.00
2019-05-28T06:28:45.029Z,3.20
2019-05-28T06:29:45.102Z,2.70
2019-05-28T06:30:45.125Z,2.90
2019-05-28T06:31:45.114Z,2.60
2019-05-28T06:32:44.998Z,2.80
2019-05-28T06:33:56.112Z,2.90
2019-05-28T06:34:45.946Z,2.60
2019-05-28T06:35:44.952Z,3.10
2019-05-28T06:36:45.050Z,2.60
2019-05-28T06:37:45.051Z,3.10
2019-05-28T06:38:44.904Z,2.70
2019-05-28T06:39:44.893Z,2.70
2019-05-28T06:40:44.893Z,3.20
2019-05-28T06:41:44.872Z,3.60
2019-05-28T06:42:44.864Z,4.40
2019-05-28T06:43:44.889Z,2.60
2019-05-28T06:44:44.864Z,2.60
2019-05-28T06:45:44.841Z,2.80
2019-05-28T06:46:44.829Z,2.50
2019-05-28T06:47:45.714Z,2.40
2019-05-28T06:48:44.954Z,2.20
2019-05-28T06:49:44.815Z,2.00
2019-05-28T06:50:44.772Z,2.20
2019-05-28T06:51:44.770Z,2.00
2019-05-28T06:52:44.764Z,2.10
2019-05-28T06:53:44.739Z,2.00
2019-05-28T06:54:44.745Z,3.90
2019-05-28T06:55:44.735Z,5.00
2019-05-28T06:56:44.727Z,3.80
2019-05-28T06:57:44.688Z,4.10
2019-05-28T06:58:44.675Z,3.60
2019-05-28T06:59:44.669Z,2.90
2019-05-28T07:00:44.665Z,3.10
2019-05-28T07:01:44.646Z,2.70
2019-05-28T07:02:44.673Z,3.10
2019-05-28T07:03:44.623Z,3.10
2019-05-28T07:04:44.624Z,2.80
2019-05-28T07:05:44.622Z,2.60
2019-05-28T07:06:44.586Z,2.80
2019-05-28T07:07:44.580Z,2.30
2019-05-28T07:08:44.591Z,2.40
2019-05-28T07:09:44.599Z,2.50
2019-05-28T07:10:57.152Z,2.30
2019-05-28T07:11:45.540Z,2.50
2019-05-28T07:12:44.536Z,2.00
2019-05-28T07:13:44.520Z,2.50
2019-05-28T07:14:44.530Z,2.20
2019-05-28T07:15:44.524Z,2.20
2019-05-28T07:16:53.276Z,2.00
2019-05-28T07:17:45.469Z,2.40
2019-05-28T07:18:44.455Z,1.90
2019-05-28T07:19:44.444Z,1.80
2019-05-28T07:20:44.429Z,1.90
2019-05-28T07:21:44.444Z,1.90
2019-05-28T07:22:44.464Z,1.80
2019-05-28T07:23:44.399Z,1.70
2019-05-28T07:24:44.381Z,1.70
2019-05-28T07:25:44.380Z,1.80
2019-05-28T07:26:44.374Z,1.80
2019-05-28T07:27:44.360Z,1.80
2019-05-28T07:28:44.385Z,1.80
2019-05-28T07:29:44.337Z,1.70
2019-05-28T07:30:45.323Z,1.50
2019-05-28T07:31:44.328Z,1.60
2019-05-28T07:32:44.309Z,1.80
2019-05-28T07:33:44.384Z,1.60
2019-05-28T07:34:44.328Z,1.60
2019-05-28T07:35:46.212Z,1.70
2019-05-28T07:36:44.356Z,1.50
2019-05-28T07:37:44.352Z,1.50
2019-05-28T07:38:44.236Z,1.80
2019-05-28T07:39:44.354Z,1.70
2019-05-28T07:40:45.360Z,1.80
2019-05-28T07:41:44.270Z,1.60
2019-05-28T07:42:44.202Z,1.60
2019-05-28T07:43:44.184Z,1.50
2019-05-28T07:44:44.277Z,1.50
2019-05-28T07:45:44.239Z,1.60
2019-05-28T07:46:44.214Z,1.50
2019-05-28T07:47:44.237Z,1.60
2019-05-28T07:48:44.273Z,1.70
2019-05-28T07:49:44.214Z,1.50
2019-05-28T07:50:44.107Z,1.40
2019-05-28T07:51:44.097Z,1.90
2019-05-28T07:52:44.113Z,1.50
2019-05-28T07:53:44.081Z,2.10
2019-05-28T07:54:44.057Z,4.10
2019-05-28T07:55:44.060Z,6.30
2019-05-28T07:56:44.038Z,13.30
2019-05-28T07:57:44.070Z,14.20
2019-05-28T07:58:44.038Z,14.00
2019-05-28T07:59:43.995Z,11.60
2019-05-28T08:00:43.997Z,12.10
2019-05-28T08:01:43.977Z,11.80
2019-05-28T08:02:43.978Z,9.40
2019-05-28T08:03:43.991Z,8.70
2019-05-28T08:04:47.259Z,7.20
2019-05-28T08:05:43.945Z,6.10
2019-05-28T08:06:54.156Z,6.30
2019-05-28T08:07:44.904Z,5.20
2019-05-28T08:08:43.903Z,6.10
2019-05-28T08:09:43.917Z,5.10
2019-05-28T08:10:43.959Z,4.80
2019-05-28T08:11:43.893Z,4.60
2019-05-28T08:12:43.858Z,4.10
2019-05-28T08:13:43.845Z,4.10
2019-05-28T08:14:43.856Z,4.10
2019-05-28T08:15:43.845Z,3.80
2019-05-28T08:16:52.319Z,3.80
2019-05-28T08:17:44.830Z,3.40
2019-05-28T08:18:43.803Z,3.20
2019-05-28T08:19:43.777Z,3.10
2019-05-28T08:20:43.778Z,2.90
2019-05-28T08:21:43.764Z,2.90
2019-05-28T08:22:43.881Z,3.10
2019-05-28T08:23:43.740Z,2.70
2019-05-28T08:24:43.717Z,2.50
2019-05-28T08:25:47.543Z,2.40
2019-05-28T08:26:43.707Z,3.00
2019-05-28T08:27:43.698Z,2.40
2019-05-28T08:28:43.732Z,2.40
2019-05-28T08:29:45.668Z,2.10
2019-05-28T08:30:43.658Z,2.60
2019-05-28T08:31:43.653Z,2.40
2019-05-28T08:32:43.639Z,2.20
2019-05-28T08:33:43.617Z,2.50
2019-05-28T08:34:43.607Z,2.00
2019-05-28T08:35:43.638Z,1.90
2019-05-28T08:36:43.598Z,2.10
2019-05-28T08:37:43.591Z,2.20
2019-05-28T08:38:43.556Z,2.00
2019-05-28T08:39:43.557Z,2.20
2019-05-28T08:40:43.537Z,2.00
2019-05-28T08:41:43.560Z,1.80
2019-05-28T08:42:43.668Z,2.00
2019-05-28T08:43:43.522Z,2.00
2019-05-28T08:44:43.496Z,2.10
2019-05-28T08:45:43.498Z,2.20
2019-05-28T08:46:43.480Z,2.00
2019-05-28T08:47:43.475Z,2.00
2019-05-28T08:48:43.458Z,2.10
2019-05-28T08:49:43.492Z,2.10
2019-05-28T08:50:43.438Z,2.20
2019-05-28T08:51:43.419Z,2.10
2019-05-28T08:52:43.416Z,2.20
2019-05-28T08:53:43.400Z,2.30
2019-05-28T08:54:43.382Z,2.20
2019-05-28T08:55:43.424Z,1.90
2019-05-28T08:56:43.359Z,2.30
2019-05-28T08:57:43.370Z,2.40
2019-05-28T08:58:43.338Z,2.10
2019-05-28T08:59:43.358Z,2.30
2019-05-28T09:00:43.322Z,2.00
2019-05-28T09:01:43.331Z,2.10
2019-05-28T09:02:43.298Z,1.90
2019-05-28T09:03:43.304Z,2.00
2019-05-28T09:04:43.350Z,2.00
2019-05-28T09:05:43.277Z,2.30
2019-05-28T09:06:43.302Z,2.30
2019-05-28T09:07:43.250Z,2.00
2019-05-28T09:08:43.238Z,2.30
2019-05-28T09:09:43.218Z,2.30
2019-05-28T09:10:43.215Z,2.20
2019-05-28T09:11:43.211Z,2.20
2019-05-28T09:12:43.215Z,2.20
2019-05-28T09:13:43.175Z,2.50
2019-05-28T09:14:55.806Z,2.70
2019-05-28T09:15:44.163Z,2.30
2019-05-28T09:16:43.137Z,2.20
2019-05-28T09:17:43.175Z,2.20
2019-05-28T09:18:43.117Z,2.10
2019-05-28T09:19:43.125Z,1.90
2019-05-28T09:20:43.135Z,2.30
2019-05-28T09:21:43.082Z,2.20
2019-05-28T09:22:43.109Z,2.00
2019-05-28T09:23:43.088Z,1.90
2019-05-28T09:24:43.095Z,1.90
2019-05-28T09:25:43.042Z,2.00
2019-05-28T09:26:43.039Z,1.90
2019-05-28T09:27:43.041Z,2.00
2019-05-28T09:28:43.031Z,1.90
2019-05-28T09:29:42.983Z,1.80
2019-05-28T09:30:43.018Z,1.90
2019-05-28T09:31:42.984Z,1.70
2019-05-28T09:32:42.969Z,1.80
2019-05-28T09:33:42.972Z,1.70
2019-05-28T09:34:42.947Z,1.70
2019-05-28T09:35:46.711Z,1.80
2019-05-28T09:36:43.946Z,1.50
2019-05-28T09:37:42.894Z,1.70
2019-05-28T09:38:42.897Z,1.90
2019-05-28T09:39:42.899Z,1.70
2019-05-28T09:40:49.840Z,1.90
2019-05-28T09:41:43.857Z,1.90
2019-05-28T09:42:42.900Z,1.50
2019-05-28T09:43:42.837Z,1.80
2019-05-28T09:44:42.823Z,1.80
2019-05-28T09:45:42.821Z,1.80
2019-05-28T09:46:42.799Z,1.90
2019-05-28T09:47:42.822Z,1.70
2019-05-28T09:48:42.774Z,1.70
2019-05-28T09:49:42.777Z,1.90
2019-05-28T09:50:42.757Z,1.80
2019-05-28T09:51:42.760Z,1.90
2019-05-28T09:52:53.762Z,1.60
2019-05-28T09:53:43.747Z,1.60
2019-05-28T09:54:42.717Z,1.80
2019-05-28T09:55:42.745Z,1.70
2019-05-28T09:56:42.794Z,1.80
2019-05-28T09:57:47.478Z,1.50
2019-05-28T09:58:43.708Z,1.80
2019-05-28T09:59:42.681Z,1.60
2019-05-28T10:00:56.545Z,1.60
2019-05-28T10:01:43.805Z,1.70
2019-05-28T10:02:42.754Z,1.80
2019-05-28T10:03:42.606Z,1.50
2019-05-28T10:04:49.402Z,1.80
2019-05-28T10:05:57.134Z,1.80
2019-05-28T10:06:43.618Z,1.40
2019-05-28T10:07:42.576Z,1.60
2019-05-28T10:08:42.697Z,1.50
2019-05-28T10:09:42.627Z,1.90
2019-05-28T10:10:42.546Z,1.60
2019-05-28T10:11:42.669Z,1.80
2019-05-28T10:12:42.624Z,1.80
2019-05-28T10:13:42.633Z,1.50
2019-05-28T10:14:44.428Z,1.40
2019-05-28T10:15:42.618Z,1.50
2019-05-28T10:16:42.549Z,1.60
2019-05-28T10:17:42.457Z,1.80
2019-05-28T10:18:42.481Z,1.50
2019-05-28T10:19:42.452Z,1.70
2019-05-28T10:20:42.440Z,1.60
2019-05-28T10:21:42.558Z,1.50
2019-05-28T10:22:42.519Z,1.60
2019-05-28T10:23:42.540Z,1.70
2019-05-28T10:24:42.401Z,1.50
2019-05-28T10:25:42.390Z,1.70
2019-05-28T10:26:42.462Z,1.70
2019-05-28T10:27:59.468Z,1.50
2019-05-28T10:28:43.356Z,1.60
2019-05-28T10:29:42.326Z,1.30
2019-05-28T10:30:42.367Z,1.60
2019-05-28T10:31:42.290Z,1.50
2019-05-28T10:32:42.439Z,1.60
2019-05-28T10:33:42.419Z,1.60
2019-05-28T10:34:42.269Z,1.60
2019-05-28T10:35:42.279Z,1.50
2019-05-28T10:36:42.255Z,1.60
2019-05-28T10:37:42.340Z,1.60
2019-05-28T10:38:42.304Z,1.40
2019-05-28T10:39:42.388Z,1.40
2019-05-28T10:40:42.321Z,1.70
2019-05-28T10:41:42.307Z,1.70
2019-05-28T10:42:42.173Z,1.70
2019-05-28T10:43:42.178Z,1.40
2019-05-28T10:44:45.180Z,1.70
2019-05-28T10:45:42.197Z,2.00
2019-05-28T10:46:42.138Z,3.40
2019-05-28T10:47:42.145Z,5.00
2019-05-28T10:48:42.121Z,4.80
2019-05-28T10:49:42.095Z,5.00
2019-05-28T10:50:42.121Z,3.90
2019-05-28T10:51:42.139Z,4.00
2019-05-28T10:52:42.090Z,3.70
2019-05-28T10:53:42.056Z,3.50
2019-05-28T10:54:42.059Z,3.40
2019-05-28T10:55:42.043Z,3.20
2019-05-28T10:56:42.047Z,3.50
2019-05-28T10:57:42.075Z,3.50
2019-05-28T10:58:42.006Z,3.60
2019-05-28T10:59:41.997Z,3.30
2019-05-28T11:00:41.987Z,3.40
2019-05-28T11:01:41.955Z,3.20
2019-05-28T11:02:42.000Z,3.20
2019-05-28T11:03:41.957Z,3.00
2019-05-28T11:04:41.960Z,3.10
2019-05-28T11:05:41.932Z,3.00
2019-05-28T11:06:51.433Z,2.90
2019-05-28T11:07:42.957Z,3.20
2019-05-28T11:08:41.904Z,2.60
2019-05-28T11:09:41.912Z,3.00
2019-05-28T11:10:41.877Z,3.10
2019-05-28T11:11:41.879Z,2.60
2019-05-28T11:12:41.862Z,3.00
2019-05-28T11:13:52.687Z,2.90
2019-05-28T11:14:42.858Z,2.70
2019-05-28T11:15:41.885Z,2.90
2019-05-28T11:16:41.810Z,2.60
2019-05-28T11:17:41.810Z,2.60
2019-05-28T11:18:41.944Z,2.40
2019-05-28T11:19:41.778Z,2.40
2019-05-28T11:20:41.780Z,2.70
2019-05-28T11:21:43.228Z,2.70
2019-05-28T11:22:41.782Z,2.90
2019-05-28T11:23:41.757Z,2.30
2019-05-28T11:24:41.719Z,2.50
2019-05-28T11:25:41.801Z,2.70
2019-05-28T11:26:41.718Z,2.60
2019-05-28T11:27:42.288Z,2.40
2019-05-28T11:28:41.676Z,2.70
2019-05-28T11:29:41.763Z,2.60
2019-05-28T11:30:41.772Z,2.60
2019-05-28T11:31:41.619Z,2.50
2019-05-28T11:32:41.711Z,2.50
2019-05-28T11:33:41.647Z,2.40
2019-05-28T11:34:41.623Z,2.20
2019-05-28T11:35:41.617Z,2.70
2019-05-28T11:36:41.614Z,2.60
2019-05-28T11:37:41.693Z,2.60
2019-05-28T11:38:41.544Z,2.60
2019-05-28T11:39:41.653Z,2.50
2019-05-28T11:40:41.632Z,2.20
2019-05-28T11:41:43.130Z,2.20
2019-05-28T11:42:41.522Z,2.50
2019-05-28T11:43:41.507Z,2.30
2019-05-28T11:44:41.537Z,2.50
2019-05-28T11:45:41.506Z,2.10
2019-05-28T11:46:41.541Z,2.30
2019-05-28T11:47:41.457Z,2.10
2019-05-28T11:48:41.565Z,2.20
2019-05-28T11:49:41.544Z,2.20
2019-05-28T11:50:41.452Z,2.20
2019-05-28T11:51:41.559Z,2.30
2019-05-28T11:52:41.511Z,2.00
2019-05-28T11:53:41.514Z,2.40
2019-05-28T11:54:41.482Z,2.10
2019-05-28T11:55:41.349Z,2.10
2019-05-28T11:56:41.392Z,2.00
2019-05-28T11:57:41.430Z,2.20
2019-05-28T11:58:41.347Z,2.00
2019-05-28T11:59:41.331Z,2.20
2019-05-28T12:00:41.313Z,2.10
2019-05-28T12:01:41.309Z,2.10
2019-05-28T12:02:41.434Z,2.30
2019-05-28T12:03:41.387Z,2.30
2019-05-28T12:04:41.365Z,2.20
2019-05-28T12:05:41.252Z,2.10
2019-05-28T12:06:41.364Z,2.00
2019-05-28T12:07:41.280Z,2.10
2019-05-28T12:08:41.226Z,1.90
2019-05-28T12:09:41.214Z,2.10
2019-05-28T12:10:41.196Z,2.20
2019-05-28T12:11:41.216Z,2.10
2019-05-28T12:12:41.173Z,2.00
2019-05-28T12:13:41.210Z,2.00
2019-05-28T12:14:41.173Z,2.10
2019-05-28T12:15:41.154Z,2.00
2019-05-28T12:16:41.219Z,2.30
2019-05-28T12:17:44.544Z,2.00
2019-05-28T12:18:41.108Z,2.00
2019-05-28T12:19:41.141Z,2.00
2019-05-28T12:20:41.094Z,2.10
2019-05-28T12:21:41.089Z,1.90
2019-05-28T12:22:41.061Z,1.80
2019-05-28T12:23:41.048Z,2.10
2019-05-28T12:24:41.068Z,1.80
2019-05-28T12:25:41.066Z,2.00
2019-05-28T12:26:41.187Z,1.80
2019-05-28T12:27:41.004Z,1.80
2019-05-28T12:28:41.014Z,2.00
2019-05-28T12:29:51.391Z,2.30
2019-05-28T12:30:41.999Z,1.90
2019-05-28T12:31:40.978Z,1.80
2019-05-28T12:32:40.984Z,2.10
2019-05-28T12:33:40.935Z,2.00
2019-05-28T12:34:40.912Z,2.30
2019-05-28T12:35:42.894Z,2.00
2019-05-28T12:36:40.912Z,2.00
2019-05-28T12:37:48.146Z,2.00
2019-05-28T12:38:41.897Z,2.20
2019-05-28T12:39:40.903Z,2.10
2019-05-28T12:40:48.050Z,1.90
2019-05-28T12:41:41.883Z,2.10
2019-05-28T12:42:40.864Z,1.90
2019-05-28T12:43:40.878Z,1.90
2019-05-28T12:44:42.610Z,1.90
2019-05-28T12:45:40.893Z,2.20
2019-05-28T12:46:40.810Z,1.80
2019-05-28T12:47:40.801Z,1.60
2019-05-28T12:48:40.771Z,1.80
2019-05-28T12:49:40.816Z,1.60
2019-05-28T12:50:40.752Z,1.80
2019-05-28T12:51:40.750Z,1.90
2019-05-28T12:52:40.728Z,1.80
2019-05-28T12:53:50.541Z,2.00
2019-05-28T12:54:41.769Z,1.80
2019-05-28T12:55:40.721Z,1.90
2019-05-28T12:56:40.700Z,1.90
2019-05-28T12:57:40.670Z,1.60
2019-05-28T12:58:42.871Z,2.00
2019-05-28T12:59:40.645Z,1.80
2019-05-28T13:00:40.868Z,1.60
2019-05-28T13:01:40.626Z,1.90
2019-05-28T13:02:40.635Z,1.90
2019-05-28T13:03:40.826Z,2.00
2019-05-28T13:04:40.606Z,1.90
2019-05-28T13:05:40.586Z,1.90
2019-05-28T13:06:40.601Z,2.00
2019-05-28T13:07:40.591Z,1.80
2019-05-28T13:08:40.563Z,1.80
2019-05-28T13:09:40.546Z,1.60
2019-05-28T13:10:40.529Z,1.60
2019-05-28T13:11:40.538Z,1.90
2019-05-28T13:12:40.506Z,1.70
2019-05-28T13:13:40.536Z,1.70
2019-05-28T13:14:40.488Z,1.80
2019-05-28T13:15:42.360Z,1.90
2019-05-28T13:16:40.477Z,1.80
2019-05-28T13:17:40.450Z,2.00